sensor_id;sensor_type;location;lat;lon;timestamp;P1;durP1;ratioP1;P2;durP2;ratioP2
58820;SDS011;70670;52.476;13.334;2023-08-06T00:00:24;11.88;;;8.57;;
58820;SDS011;70670;52.476;13.334;2023-08-06T00:03:10;9.02;;;8.13;;
58820;SDS011;70670;52.476;13.334;2023-08-06T00:05:35;9.50;;;7.70;;
58820;SDS011;70670;52.476;13.334;2023-08-06T00:08:01;10.60;;;8.00;;
58820;SDS011;70670;52.476;13.334;2023-08-06T00:10:27;13.80;;;7.72;;
58820;SDS011;70670;52.476;13.334;2023-08-06T00:12:53;9.85;;;8.13;;
58820;SDS011;70670;52.476;13.334;2023-08-06T00:15:18;10.77;;;8.30;;
58820;SDS011;70670;52.476;13.334;2023-08-06T00:17:44;9.43;;;8.48;;
58820;SDS011;70670;52.476;13.334;2023-08-06T00:20:10;10.20;;;8.80;;
58820;SDS011;70670;52.476;13.334;2023-08-06T00:22:36;10.52;;;8.40;;
58820;SDS011;70670;52.476;13.334;2023-08-06T00:25:02;11.57;;;9.07;;
58820;SDS011;70670;52.476;13.334;2023-08-06T00:27:29;14.50;;;9.73;;
58820;SDS011;70670;52.476;13.334;2023-08-06T00:29:55;12.65;;;9.43;;
58820;SDS011;70670;52.476;13.334;2023-08-06T00:32:21;10.75;;;8.88;;
58820;SDS011;70670;52.476;13.334;2023-08-06T00:34:47;10.43;;;9.32;;
58820;SDS011;70670;52.476;13.334;2023-08-06T00:37:15;10.25;;;8.93;;
58820;SDS011;70670;52.476;13.334;2023-08-06T00:39:42;12.32;;;10.32;;
58820;SDS011;70670;52.476;13.334;2023-08-06T00:42:08;11.73;;;9.82;;
58820;SDS011;70670;52.476;13.334;2023-08-06T00:44:34;12.00;;;9.27;;
58820;SDS011;70670;52.476;13.334;2023-08-06T00:46:59;11.43;;;9.90;;
58820;SDS011;70670;52.476;13.334;2023-08-06T00:49:26;11.13;;;9.82;;
58820;SDS011;70670;52.476;13.334;2023-08-06T00:51:52;10.50;;;9.40;;
58820;SDS011;70670;52.476;13.334;2023-08-06T00:54:18;10.55;;;9.50;;
58820;SDS011;70670;52.476;13.334;2023-08-06T00:56:44;10.82;;;9.73;;
58820;SDS011;70670;52.476;13.334;2023-08-06T00:59:11;10.45;;;8.45;;
58820;SDS011;70670;52.476;13.334;2023-08-06T01:01:37;9.40;;;7.75;;
58820;SDS011;70670;52.476;13.334;2023-08-06T01:04:03;13.93;;;8.00;;
58820;SDS011;70670;52.476;13.334;2023-08-06T01:06:39;10.85;;;8.10;;
58820;SDS011;70670;52.476;13.334;2023-08-06T01:12:13;8.88;;;8.07;;
58820;SDS011;70670;52.476;13.334;2023-08-06T01:14:48;10.60;;;8.52;;
58820;SDS011;70670;52.476;13.334;2023-08-06T01:17:23;10.40;;;8.30;;
58820;SDS011;70670;52.476;13.334;2023-08-06T01:19:49;11.70;;;7.72;;
58820;SDS011;70670;52.476;13.334;2023-08-06T01:22:14;9.13;;;8.02;;
58820;SDS011;70670;52.476;13.334;2023-08-06T01:24:40;8.75;;;7.88;;
58820;SDS011;70670;52.476;13.334;2023-08-06T01:27:14;9.40;;;8.40;;
58820;SDS011;70670;52.476;13.334;2023-08-06T01:29:50;11.13;;;8.32;;
58820;SDS011;70670;52.476;13.334;2023-08-06T01:32:29;10.27;;;8.43;;
58820;SDS011;70670;52.476;13.334;2023-08-06T01:34:59;11.95;;;8.70;;
58820;SDS011;70670;52.476;13.334;2023-08-06T01:37:25;10.57;;;9.57;;
58820;SDS011;70670;52.476;13.334;2023-08-06T01:39:52;9.32;;;8.40;;
58820;SDS011;70670;52.476;13.334;2023-08-06T01:42:18;11.02;;;8.73;;
58820;SDS011;70670;52.476;13.334;2023-08-06T01:44:43;8.80;;;8.00;;
58820;SDS011;70670;52.476;13.334;2023-08-06T01:47:09;9.40;;;8.27;;
58820;SDS011;70670;52.476;13.334;2023-08-06T01:49:35;12.88;;;8.63;;
58820;SDS011;70670;52.476;13.334;2023-08-06T01:52:01;11.38;;;9.15;;
58820;SDS011;70670;52.476;13.334;2023-08-06T01:54:26;11.80;;;8.82;;
58820;SDS011;70670;52.476;13.334;2023-08-06T01:56:53;10.88;;;9.70;;
58820;SDS011;70670;52.476;13.334;2023-08-06T01:59:18;13.93;;;9.00;;
58820;SDS011;70670;52.476;13.334;2023-08-06T02:01:44;9.55;;;8.75;;
58820;SDS011;70670;52.476;13.334;2023-08-06T02:04:10;10.35;;;9.30;;
58820;SDS011;70670;52.476;13.334;2023-08-06T02:06:36;10.38;;;8.15;;
58820;SDS011;70670;52.476;13.334;2023-08-06T02:09:01;11.40;;;9.27;;
58820;SDS011;70670;52.476;13.334;2023-08-06T02:11:27;10.85;;;9.43;;
58820;SDS011;70670;52.476;13.334;2023-08-06T02:13:53;10.25;;;9.18;;
58820;SDS011;70670;52.476;13.334;2023-08-06T02:16:19;10.30;;;9.20;;
58820;SDS011;70670;52.476;13.334;2023-08-06T02:18:44;12.15;;;9.70;;
58820;SDS011;70670;52.476;13.334;2023-08-06T02:21:10;10.73;;;9.60;;
58820;SDS011;70670;52.476;13.334;2023-08-06T02:23:35;11.57;;;10.10;;
58820;SDS011;70670;52.476;13.334;2023-08-06T02:26:02;11.93;;;10.65;;
58820;SDS011;70670;52.476;13.334;2023-08-06T02:28:28;11.13;;;9.93;;
58820;SDS011;70670;52.476;13.334;2023-08-06T02:30:55;12.00;;;10.75;;
58820;SDS011;70670;52.476;13.334;2023-08-06T02:33:20;12.25;;;10.93;;
58820;SDS011;70670;52.476;13.334;2023-08-06T02:35:46;11.93;;;10.60;;
58820;SDS011;70670;52.476;13.334;2023-08-06T02:38:12;11.55;;;10.43;;
58820;SDS011;70670;52.476;13.334;2023-08-06T02:40:42;13.95;;;10.48;;
58820;SDS011;70670;52.476;13.334;2023-08-06T02:43:09;13.57;;;11.05;;
58820;SDS011;70670;52.476;13.334;2023-08-06T02:45:35;15.00;;;10.73;;
58820;SDS011;70670;52.476;13.334;2023-08-06T02:48:00;14.23;;;11.27;;
58820;SDS011;70670;52.476;13.334;2023-08-06T02:50:27;11.93;;;10.38;;
58820;SDS011;70670;52.476;13.334;2023-08-06T02:52:53;13.07;;;11.25;;
58820;SDS011;70670;52.476;13.334;2023-08-06T02:55:19;11.30;;;10.25;;
58820;SDS011;70670;52.476;13.334;2023-08-06T02:57:44;11.65;;;10.45;;
58820;SDS011;70670;52.476;13.334;2023-08-06T03:00:10;14.82;;;10.65;;
58820;SDS011;70670;52.476;13.334;2023-08-06T03:02:37;13.32;;;10.80;;
58820;SDS011;70670;52.476;13.334;2023-08-06T03:05:02;11.70;;;10.52;;
58820;SDS011;70670;52.476;13.334;2023-08-06T03:07:28;11.63;;;10.52;;
58820;SDS011;70670;52.476;13.334;2023-08-06T03:09:54;13.13;;;10.95;;
58820;SDS011;70670;52.476;13.334;2023-08-06T03:12:20;11.38;;;10.15;;
58820;SDS011;70670;52.476;13.334;2023-08-06T03:14:46;12.85;;;10.15;;
58820;SDS011;70670;52.476;13.334;2023-08-06T03:17:11;12.27;;;11.02;;
58820;SDS011;70670;52.476;13.334;2023-08-06T03:19:37;11.48;;;10.27;;
58820;SDS011;70670;52.476;13.334;2023-08-06T03:22:03;11.75;;;10.55;;
58820;SDS011;70670;52.476;13.334;2023-08-06T03:24:29;13.43;;;11.10;;
58820;SDS011;70670;52.476;13.334;2023-08-06T03:26:54;11.87;;;10.67;;
58820;SDS011;70670;52.476;13.334;2023-08-06T03:29:20;11.77;;;10.55;;
58820;SDS011;70670;52.476;13.334;2023-08-06T03:31:46;12.50;;;11.18;;
58820;SDS011;70670;52.476;13.334;2023-08-06T03:34:12;11.25;;;10.13;;
58820;SDS011;70670;52.476;13.334;2023-08-06T03:36:38;11.38;;;10.23;;
58820;SDS011;70670;52.476;13.334;2023-08-06T03:39:03;11.25;;;10.05;;
58820;SDS011;70670;52.476;13.334;2023-08-06T03:41:30;12.13;;;10.95;;
58820;SDS011;70670;52.476;13.334;2023-08-06T03:43:55;12.88;;;10.20;;
58820;SDS011;70670;52.476;13.334;2023-08-06T03:46:21;11.32;;;10.13;;
58820;SDS011;70670;52.476;13.334;2023-08-06T03:48:46;11.75;;;10.25;;
58820;SDS011;70670;52.476;13.334;2023-08-06T03:51:12;12.10;;;10.25;;
58820;SDS011;70670;52.476;13.334;2023-08-06T03:53:38;9.88;;;8.73;;
58820;SDS011;70670;52.476;13.334;2023-08-06T03:56:03;9.90;;;8.82;;
58820;SDS011;70670;52.476;13.334;2023-08-06T03:58:29;8.95;;;8.02;;
58820;SDS011;70670;52.476;13.334;2023-08-06T04:00:59;9.18;;;7.75;;
58820;SDS011;70670;52.476;13.334;2023-08-06T04:03:28;8.73;;;7.93;;
58820;SDS011;70670;52.476;13.334;2023-08-06T04:05:54;8.35;;;7.55;;
58820;SDS011;70670;52.476;13.334;2023-08-06T04:08:20;9.82;;;8.43;;
58820;SDS011;70670;52.476;13.334;2023-08-06T04:10:49;9.13;;;7.57;;
58820;SDS011;70670;52.476;13.334;2023-08-06T04:13:15;9.68;;;8.68;;
58820;SDS011;70670;52.476;13.334;2023-08-06T04:15:40;8.85;;;7.60;;
58820;SDS011;70670;52.476;13.334;2023-08-06T04:18:06;9.23;;;8.20;;
58820;SDS011;70670;52.476;13.334;2023-08-06T04:20:32;8.75;;;7.93;;
58820;SDS011;70670;52.476;13.334;2023-08-06T04:22:57;9.30;;;8.35;;
58820;SDS011;70670;52.476;13.334;2023-08-06T04:25:23;8.02;;;7.22;;
58820;SDS011;70670;52.476;13.334;2023-08-06T04:27:49;10.27;;;7.18;;
58820;SDS011;70670;52.476;13.334;2023-08-06T04:30:14;8.75;;;7.85;;
58820;SDS011;70670;52.476;13.334;2023-08-06T04:32:40;9.23;;;8.32;;
58820;SDS011;70670;52.476;13.334;2023-08-06T04:35:06;8.05;;;7.30;;
58820;SDS011;70670;52.476;13.334;2023-08-06T04:37:32;9.55;;;8.63;;
58820;SDS011;70670;52.476;13.334;2023-08-06T04:39:57;9.27;;;8.25;;
58820;SDS011;70670;52.476;13.334;2023-08-06T04:42:23;8.95;;;8.15;;
58820;SDS011;70670;52.476;13.334;2023-08-06T04:44:49;8.88;;;8.00;;
58820;SDS011;70670;52.476;13.334;2023-08-06T04:47:15;8.57;;;7.80;;
58820;SDS011;70670;52.476;13.334;2023-08-06T04:49:41;9.27;;;8.48;;
58820;SDS011;70670;52.476;13.334;2023-08-06T04:52:06;10.20;;;7.88;;
58820;SDS011;70670;52.476;13.334;2023-08-06T04:54:32;9.00;;;8.15;;
58820;SDS011;70670;52.476;13.334;2023-08-06T04:56:59;8.13;;;7.35;;
58820;SDS011;70670;52.476;13.334;2023-08-06T04:59:24;8.63;;;7.68;;
58820;SDS011;70670;52.476;13.334;2023-08-06T05:01:50;7.45;;;6.75;;
58820;SDS011;70670;52.476;13.334;2023-08-06T05:04:15;9.10;;;6.97;;
58820;SDS011;70670;52.476;13.334;2023-08-06T05:06:41;8.85;;;7.30;;
58820;SDS011;70670;52.476;13.334;2023-08-06T05:09:07;7.80;;;7.03;;
58820;SDS011;70670;52.476;13.334;2023-08-06T05:11:33;7.88;;;7.15;;
58820;SDS011;70670;52.476;13.334;2023-08-06T05:13:58;7.88;;;7.10;;
58820;SDS011;70670;52.476;13.334;2023-08-06T05:16:24;10.13;;;7.53;;
58820;SDS011;70670;52.476;13.334;2023-08-06T05:18:49;8.23;;;7.50;;
58820;SDS011;70670;52.476;13.334;2023-08-06T05:21:15;7.78;;;7.18;;
58820;SDS011;70670;52.476;13.334;2023-08-06T05:23:41;10.50;;;7.07;;
58820;SDS011;70670;52.476;13.334;2023-08-06T05:26:07;7.85;;;7.05;;
58820;SDS011;70670;52.476;13.334;2023-08-06T05:28:33;8.07;;;6.78;;
58820;SDS011;70670;52.476;13.334;2023-08-06T05:31:02;8.18;;;7.30;;
58820;SDS011;70670;52.476;13.334;2023-08-06T05:35:54;7.85;;;7.15;;
58820;SDS011;70670;52.476;13.334;2023-08-06T05:38:20;7.88;;;7.18;;
58820;SDS011;70670;52.476;13.334;2023-08-06T05:40:45;9.57;;;7.88;;
58820;SDS011;70670;52.476;13.334;2023-08-06T05:43:11;8.10;;;7.22;;
58820;SDS011;70670;52.476;13.334;2023-08-06T05:45:37;10.38;;;7.93;;
58820;SDS011;70670;52.476;13.334;2023-08-06T05:48:02;9.32;;;7.47;;
58820;SDS011;70670;52.476;13.334;2023-08-06T05:50:28;8.95;;;7.70;;
58820;SDS011;70670;52.476;13.334;2023-08-06T05:52:54;9.77;;;8.27;;
58820;SDS011;70670;52.476;13.334;2023-08-06T05:55:19;8.70;;;7.90;;
58820;SDS011;70670;52.476;13.334;2023-08-06T05:57:45;9.18;;;8.23;;
58820;SDS011;70670;52.476;13.334;2023-08-06T06:00:11;9.25;;;7.93;;
58820;SDS011;70670;52.476;13.334;2023-08-06T06:02:37;8.70;;;7.90;;
58820;SDS011;70670;52.476;13.334;2023-08-06T06:05:02;8.93;;;8.13;;
58820;SDS011;70670;52.476;13.334;2023-08-06T06:07:28;8.75;;;7.95;;
58820;SDS011;70670;52.476;13.334;2023-08-06T06:09:54;9.18;;;8.20;;
58820;SDS011;70670;52.476;13.334;2023-08-06T06:12:19;9.68;;;8.70;;
58820;SDS011;70670;52.476;13.334;2023-08-06T06:14:47;9.70;;;8.80;;
58820;SDS011;70670;52.476;13.334;2023-08-06T06:17:13;10.45;;;9.30;;
58820;SDS011;70670;52.476;13.334;2023-08-06T06:19:39;11.30;;;9.73;;
58820;SDS011;70670;52.476;13.334;2023-08-06T06:22:04;12.32;;;9.63;;
58820;SDS011;70670;52.476;13.334;2023-08-06T06:24:30;12.95;;;10.60;;
58820;SDS011;70670;52.476;13.334;2023-08-06T06:26:55;10.63;;;9.52;;
58820;SDS011;70670;52.476;13.334;2023-08-06T06:29:21;12.13;;;9.73;;
58820;SDS011;70670;52.476;13.334;2023-08-06T06:31:47;12.27;;;9.73;;
58820;SDS011;70670;52.476;13.334;2023-08-06T06:34:12;10.70;;;9.60;;
58820;SDS011;70670;52.476;13.334;2023-08-06T06:36:38;10.20;;;8.90;;
58820;SDS011;70670;52.476;13.334;2023-08-06T06:39:04;8.40;;;7.60;;
58820;SDS011;70670;52.476;13.334;2023-08-06T06:41:29;10.00;;;7.65;;
58820;SDS011;70670;52.476;13.334;2023-08-06T06:43:57;8.80;;;7.90;;
58820;SDS011;70670;52.476;13.334;2023-08-06T06:46:22;9.15;;;8.20;;
58820;SDS011;70670;52.476;13.334;2023-08-06T06:48:48;10.38;;;8.48;;
58820;SDS011;70670;52.476;13.334;2023-08-06T06:51:13;10.10;;;8.18;;
58820;SDS011;70670;52.476;13.334;2023-08-06T06:53:39;19.25;;;15.05;;
58820;SDS011;70670;52.476;13.334;2023-08-06T06:56:05;14.07;;;12.57;;
58820;SDS011;70670;52.476;13.334;2023-08-06T06:58:31;9.13;;;8.23;;
58820;SDS011;70670;52.476;13.334;2023-08-06T07:00:57;9.35;;;8.20;;
58820;SDS011;70670;52.476;13.334;2023-08-06T07:03:23;9.82;;;8.10;;
58820;SDS011;70670;52.476;13.334;2023-08-06T07:05:49;8.63;;;7.82;;
58820;SDS011;70670;52.476;13.334;2023-08-06T07:08:15;7.15;;;6.55;;
58820;SDS011;70670;52.476;13.334;2023-08-06T07:10:41;7.65;;;6.57;;
58820;SDS011;70670;52.476;13.334;2023-08-06T07:13:08;8.30;;;7.50;;
58820;SDS011;70670;52.476;13.334;2023-08-06T07:15:34;6.72;;;6.13;;
58820;SDS011;70670;52.476;13.334;2023-08-06T07:18:00;7.25;;;6.55;;
58820;SDS011;70670;52.476;13.334;2023-08-06T07:20:26;7.63;;;6.93;;
58820;SDS011;70670;52.476;13.334;2023-08-06T07:22:54;8.10;;;7.40;;
58820;SDS011;70670;52.476;13.334;2023-08-06T07:25:20;7.50;;;6.80;;
58820;SDS011;70670;52.476;13.334;2023-08-06T07:27:45;7.35;;;6.65;;
58820;SDS011;70670;52.476;13.334;2023-08-06T07:30:11;6.40;;;5.75;;
58820;SDS011;70670;52.476;13.334;2023-08-06T07:32:37;7.75;;;6.78;;
58820;SDS011;70670;52.476;13.334;2023-08-06T07:35:02;7.28;;;6.50;;
58820;SDS011;70670;52.476;13.334;2023-08-06T07:37:28;6.75;;;6.15;;
58820;SDS011;70670;52.476;13.334;2023-08-06T07:39:55;6.13;;;5.63;;
58820;SDS011;70670;52.476;13.334;2023-08-06T07:42:21;7.38;;;6.47;;
58820;SDS011;70670;52.476;13.334;2023-08-06T07:44:54;6.95;;;6.35;;
58820;SDS011;70670;52.476;13.334;2023-08-06T07:47:21;6.05;;;5.53;;
58820;SDS011;70670;52.476;13.334;2023-08-06T07:49:46;7.13;;;6.43;;
58820;SDS011;70670;52.476;13.334;2023-08-06T07:52:12;6.75;;;5.70;;
58820;SDS011;70670;52.476;13.334;2023-08-06T07:54:38;7.50;;;6.85;;
58820;SDS011;70670;52.476;13.334;2023-08-06T07:57:04;7.55;;;6.95;;
58820;SDS011;70670;52.476;13.334;2023-08-06T07:59:30;8.90;;;7.07;;
58820;SDS011;70670;52.476;13.334;2023-08-06T08:01:56;7.57;;;6.90;;
58820;SDS011;70670;52.476;13.334;2023-08-06T08:04:21;7.20;;;6.60;;
58820;SDS011;70670;52.476;13.334;2023-08-06T08:06:47;8.25;;;7.45;;
58820;SDS011;70670;52.476;13.334;2023-08-06T08:09:13;8.23;;;7.40;;
58820;SDS011;70670;52.476;13.334;2023-08-06T08:11:40;8.82;;;8.02;;
58820;SDS011;70670;52.476;13.334;2023-08-06T08:14:06;12.57;;;9.70;;
58820;SDS011;70670;52.476;13.334;2023-08-06T08:16:31;10.90;;;9.55;;
58820;SDS011;70670;52.476;13.334;2023-08-06T08:18:57;10.95;;;9.27;;
58820;SDS011;70670;52.476;13.334;2023-08-06T08:21:23;8.90;;;8.05;;
58820;SDS011;70670;52.476;13.334;2023-08-06T08:23:49;25.77;;;17.50;;
58820;SDS011;70670;52.476;13.334;2023-08-06T08:26:16;14.07;;;11.02;;
58820;SDS011;70670;52.476;13.334;2023-08-06T08:28:41;10.20;;;9.20;;
58820;SDS011;70670;52.476;13.334;2023-08-06T08:31:08;10.75;;;9.43;;
58820;SDS011;70670;52.476;13.334;2023-08-06T08:36:05;9.95;;;8.77;;
58820;SDS011;70670;52.476;13.334;2023-08-06T08:38:31;11.50;;;9.95;;
58820;SDS011;70670;52.476;13.334;2023-08-06T08:40:56;11.23;;;8.98;;
58820;SDS011;70670;52.476;13.334;2023-08-06T08:43:22;10.00;;;8.70;;
58820;SDS011;70670;52.476;13.334;2023-08-06T08:45:51;15.25;;;12.57;;
58820;SDS011;70670;52.476;13.334;2023-08-06T08:48:20;11.32;;;10.23;;
58820;SDS011;70670;52.476;13.334;2023-08-06T08:50:47;10.15;;;9.25;;
58820;SDS011;70670;52.476;13.334;2023-08-06T08:53:14;14.50;;;10.18;;
58820;SDS011;70670;52.476;13.334;2023-08-06T08:55:41;14.02;;;11.00;;
58820;SDS011;70670;52.476;13.334;2023-08-06T08:58:08;17.35;;;15.48;;
58820;SDS011;70670;52.476;13.334;2023-08-06T09:00:34;12.40;;;10.35;;
58820;SDS011;70670;52.476;13.334;2023-08-06T09:03:00;22.83;;;19.42;;
58820;SDS011;70670;52.476;13.334;2023-08-06T09:05:30;12.32;;;11.13;;
58820;SDS011;70670;52.476;13.334;2023-08-06T09:07:57;13.82;;;11.57;;
58820;SDS011;70670;52.476;13.334;2023-08-06T09:10:28;16.38;;;12.50;;
58820;SDS011;70670;52.476;13.334;2023-08-06T09:12:54;13.95;;;12.23;;
58820;SDS011;70670;52.476;13.334;2023-08-06T09:15:24;12.27;;;10.93;;
58820;SDS011;70670;52.476;13.334;2023-08-06T09:17:54;12.50;;;11.30;;
58820;SDS011;70670;52.476;13.334;2023-08-06T09:20:20;13.15;;;11.90;;
58820;SDS011;70670;52.476;13.334;2023-08-06T09:22:46;14.18;;;12.05;;
58820;SDS011;70670;52.476;13.334;2023-08-06T09:25:20;12.75;;;11.20;;
58820;SDS011;70670;52.476;13.334;2023-08-06T09:27:48;13.75;;;11.70;;
58820;SDS011;70670;52.476;13.334;2023-08-06T09:30:28;12.82;;;11.52;;
58820;SDS011;70670;52.476;13.334;2023-08-06T09:32:55;15.27;;;12.50;;
58820;SDS011;70670;52.476;13.334;2023-08-06T09:35:21;12.40;;;11.20;;
58820;SDS011;70670;52.476;13.334;2023-08-06T09:37:47;11.30;;;10.20;;
58820;SDS011;70670;52.476;13.334;2023-08-06T09:43:07;13.05;;;11.75;;
58820;SDS011;70670;52.476;13.334;2023-08-06T09:45:36;11.35;;;10.27;;
58820;SDS011;70670;52.476;13.334;2023-08-06T09:48:04;17.92;;;16.02;;
58820;SDS011;70670;52.476;13.334;2023-08-06T09:50:31;12.20;;;10.90;;
58820;SDS011;70670;52.476;13.334;2023-08-06T09:52:57;13.07;;;11.82;;
58820;SDS011;70670;52.476;13.334;2023-08-06T09:55:24;12.68;;;11.38;;
58820;SDS011;70670;52.476;13.334;2023-08-06T09:57:51;12.32;;;11.23;;
58820;SDS011;70670;52.476;13.334;2023-08-06T10:00:17;12.73;;;10.40;;
58820;SDS011;70670;52.476;13.334;2023-08-06T10:02:44;11.75;;;10.45;;
58820;SDS011;70670;52.476;13.334;2023-08-06T10:05:10;12.18;;;10.05;;
58820;SDS011;70670;52.476;13.334;2023-08-06T10:07:36;12.02;;;10.55;;
58820;SDS011;70670;52.476;13.334;2023-08-06T10:10:04;13.63;;;11.50;;
58820;SDS011;70670;52.476;13.334;2023-08-06T10:12:36;12.05;;;10.85;;
58820;SDS011;70670;52.476;13.334;2023-08-06T10:15:06;11.05;;;10.05;;
58820;SDS011;70670;52.476;13.334;2023-08-06T10:17:35;11.27;;;10.07;;
58820;SDS011;70670;52.476;13.334;2023-08-06T10:20:03;11.73;;;10.52;;
58820;SDS011;70670;52.476;13.334;2023-08-06T10:22:32;12.15;;;11.00;;
58820;SDS011;70670;52.476;13.334;2023-08-06T10:24:59;12.43;;;11.15;;
58820;SDS011;70670;52.476;13.334;2023-08-06T10:35:33;13.02;;;11.68;;
58820;SDS011;70670;52.476;13.334;2023-08-06T10:40:33;14.90;;;12.25;;
58820;SDS011;70670;52.476;13.334;2023-08-06T10:43:03;14.38;;;12.63;;
58820;SDS011;70670;52.476;13.334;2023-08-06T10:45:29;13.38;;;11.77;;
58820;SDS011;70670;52.476;13.334;2023-08-06T10:47:56;19.88;;;13.73;;
58820;SDS011;70670;52.476;13.334;2023-08-06T10:50:25;13.13;;;11.75;;
58820;SDS011;70670;52.476;13.334;2023-08-06T10:52:51;14.88;;;11.65;;
58820;SDS011;70670;52.476;13.334;2023-08-06T10:55:24;14.90;;;12.02;;
58820;SDS011;70670;52.476;13.334;2023-08-06T10:57:54;13.40;;;12.00;;
58820;SDS011;70670;52.476;13.334;2023-08-06T11:00:24;16.55;;;11.77;;
58820;SDS011;70670;52.476;13.334;2023-08-06T11:02:51;19.33;;;13.45;;
58820;SDS011;70670;52.476;13.334;2023-08-06T11:05:17;15.90;;;14.20;;
58820;SDS011;70670;52.476;13.334;2023-08-06T11:07:43;22.95;;;17.00;;
58820;SDS011;70670;52.476;13.334;2023-08-06T11:10:10;22.73;;;15.98;;
58820;SDS011;70670;52.476;13.334;2023-08-06T11:12:37;25.67;;;16.90;;
58820;SDS011;70670;52.476;13.334;2023-08-06T11:15:03;23.98;;;19.83;;
58820;SDS011;70670;52.476;13.334;2023-08-06T11:17:31;28.42;;;20.77;;
58820;SDS011;70670;52.476;13.334;2023-08-06T11:20:04;29.52;;;20.75;;
58820;SDS011;70670;52.476;13.334;2023-08-06T11:22:30;26.35;;;21.00;;
58820;SDS011;70670;52.476;13.334;2023-08-06T11:24:56;29.17;;;23.00;;
58820;SDS011;70670;52.476;13.334;2023-08-06T11:27:28;28.02;;;22.00;;
58820;SDS011;70670;52.476;13.334;2023-08-06T11:29:54;29.40;;;23.00;;
58820;SDS011;70670;52.476;13.334;2023-08-06T11:32:20;35.22;;;27.00;;
58820;SDS011;70670;52.476;13.334;2023-08-06T11:34:46;33.65;;;24.33;;
58820;SDS011;70670;52.476;13.334;2023-08-06T11:37:11;40.17;;;23.25;;
58820;SDS011;70670;52.476;13.334;2023-08-06T11:39:37;36.00;;;23.98;;
58820;SDS011;70670;52.476;13.334;2023-08-06T11:42:04;42.05;;;28.50;;
58820;SDS011;70670;52.476;13.334;2023-08-06T11:44:35;40.42;;;27.90;;
58820;SDS011;70670;52.476;13.334;2023-08-06T11:47:02;40.85;;;28.00;;
58820;SDS011;70670;52.476;13.334;2023-08-06T11:52:21;39.10;;;28.73;;
58820;SDS011;70670;52.476;13.334;2023-08-06T11:55:02;35.75;;;24.40;;
58820;SDS011;70670;52.476;13.334;2023-08-06T11:57:32;47.67;;;36.10;;
58820;SDS011;70670;52.476;13.334;2023-08-06T12:00:01;108.85;;;82.03;;
58820;SDS011;70670;52.476;13.334;2023-08-06T12:02:30;105.25;;;74.75;;
58820;SDS011;70670;52.476;13.334;2023-08-06T12:07:40;183.40;;;133.55;;
58820;SDS011;70670;52.476;13.334;2023-08-06T12:10:10;47.42;;;36.92;;
58820;SDS011;70670;52.476;13.334;2023-08-06T12:12:37;49.22;;;37.00;;
58820;SDS011;70670;52.476;13.334;2023-08-06T12:15:04;20.75;;;15.75;;
58820;SDS011;70670;52.476;13.334;2023-08-06T12:17:31;14.75;;;12.32;;
58820;SDS011;70670;52.476;13.334;2023-08-06T12:19:57;16.30;;;11.05;;
58820;SDS011;70670;52.476;13.334;2023-08-06T12:22:23;14.70;;;13.20;;
58820;SDS011;70670;52.476;13.334;2023-08-06T12:24:49;19.05;;;16.40;;
58820;SDS011;70670;52.476;13.334;2023-08-06T12:27:14;23.58;;;17.23;;
58820;SDS011;70670;52.476;13.334;2023-08-06T12:29:46;21.20;;;16.73;;
58820;SDS011;70670;52.476;13.334;2023-08-06T12:32:13;16.73;;;13.75;;
58820;SDS011;70670;52.476;13.334;2023-08-06T12:34:39;18.60;;;14.77;;
58820;SDS011;70670;52.476;13.334;2023-08-06T12:37:06;18.85;;;14.73;;
58820;SDS011;70670;52.476;13.334;2023-08-06T12:39:35;21.38;;;17.13;;
58820;SDS011;70670;52.476;13.334;2023-08-06T12:42:02;22.08;;;17.88;;
58820;SDS011;70670;52.476;13.334;2023-08-06T12:44:29;22.30;;;16.98;;
58820;SDS011;70670;52.476;13.334;2023-08-06T12:46:54;22.30;;;15.80;;
58820;SDS011;70670;52.476;13.334;2023-08-06T12:49:20;21.92;;;16.85;;
58820;SDS011;70670;52.476;13.334;2023-08-06T12:51:46;26.27;;;19.15;;
58820;SDS011;70670;52.476;13.334;2023-08-06T12:54:13;28.75;;;18.75;;
58820;SDS011;70670;52.476;13.334;2023-08-06T12:56:39;27.38;;;18.98;;
58820;SDS011;70670;52.476;13.334;2023-08-06T12:59:05;28.80;;;19.02;;
58820;SDS011;70670;52.476;13.334;2023-08-06T13:01:30;25.00;;;18.45;;
58820;SDS011;70670;52.476;13.334;2023-08-06T13:03:56;16.17;;;13.73;;
58820;SDS011;70670;52.476;13.334;2023-08-06T13:06:22;15.43;;;12.95;;
58820;SDS011;70670;52.476;13.334;2023-08-06T13:08:48;13.70;;;10.90;;
58820;SDS011;70670;52.476;13.334;2023-08-06T13:11:14;16.25;;;12.57;;
58820;SDS011;70670;52.476;13.334;2023-08-06T13:13:40;16.92;;;11.90;;
58820;SDS011;70670;52.476;13.334;2023-08-06T13:16:05;21.02;;;14.25;;
58820;SDS011;70670;52.476;13.334;2023-08-06T13:18:31;17.02;;;14.18;;
58820;SDS011;70670;52.476;13.334;2023-08-06T13:20:56;17.15;;;11.82;;
58820;SDS011;70670;52.476;13.334;2023-08-06T13:23:22;15.43;;;11.77;;
58820;SDS011;70670;52.476;13.334;2023-08-06T13:25:48;14.80;;;11.07;;
58820;SDS011;70670;52.476;13.334;2023-08-06T13:28:13;22.40;;;14.48;;
58820;SDS011;70670;52.476;13.334;2023-08-06T13:30:39;17.08;;;10.57;;
58820;SDS011;70670;52.476;13.334;2023-08-06T13:33:07;37.92;;;25.15;;
58820;SDS011;70670;52.476;13.334;2023-08-06T13:35:33;21.88;;;15.95;;
58820;SDS011;70670;52.476;13.334;2023-08-06T13:37:59;26.58;;;18.45;;
58820;SDS011;70670;52.476;13.334;2023-08-06T13:40:27;17.17;;;14.32;;
58820;SDS011;70670;52.476;13.334;2023-08-06T13:42:53;20.15;;;13.95;;
58820;SDS011;70670;52.476;13.334;2023-08-06T13:45:19;27.67;;;16.60;;
58820;SDS011;70670;52.476;13.334;2023-08-06T13:47:45;25.73;;;18.20;;
58820;SDS011;70670;52.476;13.334;2023-08-06T13:50:10;26.88;;;18.25;;
58820;SDS011;70670;52.476;13.334;2023-08-06T13:52:36;25.23;;;17.58;;
58820;SDS011;70670;52.476;13.334;2023-08-06T13:55:02;30.98;;;18.73;;
58820;SDS011;70670;52.476;13.334;2023-08-06T13:57:29;31.52;;;19.52;;
58820;SDS011;70670;52.476;13.334;2023-08-06T13:59:54;34.38;;;20.95;;
58820;SDS011;70670;52.476;13.334;2023-08-06T14:02:20;32.22;;;20.25;;
58820;SDS011;70670;52.476;13.334;2023-08-06T14:04:47;28.42;;;20.65;;
58820;SDS011;70670;52.476;13.334;2023-08-06T14:07:12;31.42;;;21.17;;
58820;SDS011;70670;52.476;13.334;2023-08-06T14:09:38;35.95;;;22.25;;
58820;SDS011;70670;52.476;13.334;2023-08-06T14:12:05;33.03;;;21.27;;
58820;SDS011;70670;52.476;13.334;2023-08-06T14:14:31;31.23;;;19.65;;
58820;SDS011;70670;52.476;13.334;2023-08-06T14:16:57;32.03;;;20.75;;
58820;SDS011;70670;52.476;13.334;2023-08-06T14:19:23;33.17;;;20.42;;
58820;SDS011;70670;52.476;13.334;2023-08-06T14:21:49;32.78;;;21.08;;
58820;SDS011;70670;52.476;13.334;2023-08-06T14:24:15;31.58;;;20.58;;
58820;SDS011;70670;52.476;13.334;2023-08-06T14:26:40;33.67;;;20.15;;
58820;SDS011;70670;52.476;13.334;2023-08-06T14:29:06;30.85;;;20.27;;
58820;SDS011;70670;52.476;13.334;2023-08-06T14:31:32;31.88;;;21.55;;
58820;SDS011;70670;52.476;13.334;2023-08-06T14:33:57;27.38;;;17.30;;
58820;SDS011;70670;52.476;13.334;2023-08-06T14:36:23;23.60;;;15.50;;
58820;SDS011;70670;52.476;13.334;2023-08-06T14:38:49;22.77;;;14.35;;
58820;SDS011;70670;52.476;13.334;2023-08-06T14:41:15;23.40;;;16.40;;